Time;durP1;ratioP1;P1;durP2;ratioP2;P2;SDS_P1;SDS_P2;PMS_P1;PMS_P2;Temp;Humidity;BMP_temperature;BMP_pressure;BME280_temperature;BME280_humidity;BME280_pressure;Samples;Min_cycle;Max_cycle;Signal;HPM_P1;HPM_P2
2022/04/07 00:00:18;;;;;;;;;;;19.40;46.80;;;;;;5128911;27;43075;-78
2022/04/07 00:02:44;;;;;;;;;;;19.40;46.90;;;;;;5128846;27;42825;-78
2022/04/07 00:05:09;;;;;;;;;;;19.50;46.90;;;;;;5128565;27;43252;-78
2022/04/07 00:07:35;;;;;;;;;;;19.50;46.90;;;;;;5128801;27;43144;-77
2022/04/07 00:10:00;;;;;;;;;;;19.40;46.90;;;;;;5128744;27;43075;-79
2022/04/07 00:12:26;;;;;;;;;;;19.40;46.90;;;;;;5128408;27;42805;-77
2022/04/07 00:14:51;;;;;;;;;;;19.50;47.00;;;;;;5128310;27;42801;-77
2022/04/07 00:17:17;;;;;;;;;;;19.40;47.00;;;;;;5128602;27;43556;-77
2022/04/07 00:19:43;;;;;;;;;;;19.50;47.10;;;;;;5128258;27;42911;-76
2022/04/07 00:22:09;;;;;;;;;;;19.40;47.00;;;;;;5128608;27;42879;-78
2022/04/07 00:24:34;;;;;;;;;;;19.50;47.30;;;;;;5126987;27;42905;-76
2022/04/07 00:27:00;;;;;;;;;;;19.40;47.10;;;;;;5128750;27;43651;-79
2022/04/07 00:35:32;;;;;;;;;;;19.50;47.20;;;;;;5129127;27;43096;-78
2022/04/07 00:37:58;;;;;;;;;;;19.50;47.20;;;;;;5127217;27;42865;-78
2022/04/07 00:40:24;;;;;;;;;;;19.50;47.20;;;;;;5129253;27;43055;-78
2022/04/07 00:42:50;;;;;;;;;;;19.50;47.30;;;;;;5127360;27;43010;-77
2022/04/07 00:45:17;;;;;;;;;;;19.50;47.30;;;;;;5127748;27;43041;-77
2022/04/07 00:47:43;;;;;;;;;;;19.50;47.30;;;;;;5127268;27;43681;-78
2022/04/07 00:50:09;;;;;;;;;;;19.50;47.30;;;;;;5127825;27;42869;-79
2022/04/07 00:52:36;;;;;;;;;;;19.50;47.80;;;;;;5127851;27;42959;-79
2022/04/07 00:55:02;;;;;;;;;;;19.50;47.40;;;;;;5127664;27;42875;-79
2022/04/07 00:57:28;;;;;;;;;;;19.50;47.40;;;;;;5126257;27;45040;-79
2022/04/07 00:59:55;;;;;;;;;;;19.50;47.40;;;;;;5127848;27;43750;-78
2022/04/07 01:02:21;;;;;;;;;;;19.50;47.40;;;;;;5127185;27;43851;-77
2022/04/07 01:04:46;;;;;;;;;;;19.50;47.40;;;;;;5127898;27;42989;-77
2022/04/07 01:07:12;;;;;;;;;;;19.50;47.50;;;;;;5125987;27;42917;-78
2022/04/07 01:09:38;;;;;;;;;;;19.50;47.50;;;;;;5126169;27;43381;-78
2022/04/07 01:12:03;;;;;;;;;;;19.50;47.50;;;;;;5128206;27;43629;-77
2022/04/07 01:14:29;;;;;;;;;;;19.50;47.50;;;;;;5127266;27;42894;-78
2022/04/07 01:16:56;;;;;;;;;;;19.50;47.50;;;;;;5127272;27;43639;-78
2022/04/07 01:19:22;;;;;;;;;;;19.50;47.60;;;;;;5126688;27;43043;-78
2022/04/07 01:21:47;;;;;;;;;;;19.50;47.60;;;;;;5127308;27;43668;-77
2022/04/07 01:24:13;;;;;;;;;;;19.50;48.10;;;;;;5126893;27;42908;-76
2022/04/07 01:26:40;;;;;;;;;;;19.50;47.60;;;;;;5127405;27;43453;-78
2022/04/07 01:29:07;;;;;;;;;;;19.50;47.60;;;;;;5127530;27;43147;-78
2022/04/07 01:31:32;;;;;;;;;;;19.50;47.60;;;;;;5127321;27;43426;-78
2022/04/07 01:33:58;;;;;;;;;;;19.50;47.70;;;;;;5126717;27;42950;-77
2022/04/07 01:36:26;;;;;;;;;;;19.50;47.70;;;;;;5125020;27;43124;-79
2022/04/07 01:38:52;;;;;;;;;;;19.50;47.70;;;;;;5126641;27;42894;-78
2022/04/07 01:41:18;;;;;;;;;;;19.50;47.70;;;;;;5126863;27;42908;-79
2022/04/07 01:43:45;;;;;;;;;;;19.50;47.70;;;;;;5127249;27;42962;-79
2022/04/07 01:46:12;;;;;;;;;;;19.50;47.80;;;;;;5125914;27;43403;-78
2022/04/07 01:48:38;;;;;;;;;;;19.50;47.80;;;;;;5126542;27;43069;-76
2022/04/07 01:51:04;;;;;;;;;;;19.50;47.80;;;;;;5126554;27;43522;-77
2022/04/07 01:53:29;;;;;;;;;;;19.50;47.80;;;;;;5126872;27;43063;-77
2022/04/07 01:55:55;;;;;;;;;;;19.50;47.80;;;;;;5126983;27;43409;-78
2022/04/07 01:58:21;;;;;;;;;;;19.60;47.90;;;;;;5127887;27;43002;-79
2022/04/07 02:00:47;;;;;;;;;;;19.60;47.90;;;;;;5127144;27;42971;-77
2022/04/07 02:03:13;;;;;;;;;;;19.50;47.90;;;;;;5127458;27;42979;-78
2022/04/07 02:05:38;;;;;;;;;;;19.50;47.90;;;;;;5126884;27;43635;-77
2022/04/07 02:08:04;;;;;;;;;;;19.60;48.00;;;;;;5130177;27;43673;-78
2022/04/07 02:10:31;;;;;;;;;;;19.60;48.00;;;;;;5130438;27;43000;-77
2022/04/07 02:12:58;;;;;;;;;;;19.60;48.00;;;;;;5131066;27;43014;-79
2022/04/07 02:15:25;;;;;;;;;;;19.60;48.10;;;;;;5129863;27;43739;-78
2022/04/07 02:17:50;;;;;;;;;;;19.50;48.00;;;;;;5130824;27;42834;-78
2022/04/07 02:20:16;;;;;;;;;;;19.60;48.10;;;;;;5128370;27;43430;-80
2022/04/07 02:22:41;;;;;;;;;;;19.60;48.10;;;;;;5129853;27;42902;-78
2022/04/07 02:25:08;;;;;;;;;;;19.60;48.20;;;;;;5129837;27;42986;-78
2022/04/07 02:27:39;;;;;;;;;;;19.60;48.20;;;;;;5130478;27;42913;-78
2022/04/07 02:30:05;;;;;;;;;;;19.60;48.20;;;;;;5117945;27;43403;-79
2022/04/07 02:32:31;;;;;;;;;;;19.60;48.20;;;;;;5107924;27;43035;-77
2022/04/07 02:34:56;;;;;;;;;;;19.60;48.30;;;;;;5108755;27;43378;-79
2022/04/07 02:37:22;;;;;;;;;;;19.60;48.30;;;;;;5108448;27;42821;-80
2022/04/07 02:39:48;;;;;;;;;;;19.60;48.30;;;;;;5109179;27;42980;-77
2022/04/07 02:42:14;;;;;;;;;;;19.60;48.30;;;;;;5109231;27;43077;-77
2022/04/07 02:44:39;;;;;;;;;;;19.60;48.40;;;;;;5108734;27;43047;-78
2022/04/07 02:47:05;;;;;;;;;;;19.60;48.40;;;;;;5109415;27;42980;-78
2022/04/07 02:49:30;;;;;;;;;;;19.60;48.40;;;;;;5108781;27;42911;-77
2022/04/07 02:51:56;;;;;;;;;;;19.60;48.40;;;;;;5109042;27;43024;-78
2022/04/07 02:54:22;;;;;;;;;;;19.60;48.50;;;;;;5107011;27;43963;-78
2022/04/07 02:56:47;;;;;;;;;;;19.60;48.50;;;;;;5107839;27;42973;-77
2022/04/07 02:59:13;;;;;;;;;;;19.60;48.50;;;;;;5106464;27;43246;-78
2022/04/07 03:01:38;;;;;;;;;;;19.60;48.60;;;;;;5108152;27;42908;-77
2022/04/07 03:04:04;;;;;;;;;;;19.60;48.60;;;;;;5107874;27;43750;-80
2022/04/07 03:06:29;;;;;;;;;;;19.60;48.60;;;;;;5112060;27;42920;-79
2022/04/07 03:08:55;;;;;;;;;;;19.60;48.70;;;;;;5108481;27;43821;-78
2022/04/07 03:11:20;;;;;;;;;;;19.60;48.70;;;;;;5110689;27;43041;-79
2022/04/07 03:13:46;;;;;;;;;;;19.60;48.70;;;;;;5114871;27;43675;-78
2022/04/07 03:16:11;;;;;;;;;;;19.60;48.70;;;;;;5112185;27;42949;-77
2022/04/07 03:18:37;;;;;;;;;;;19.60;48.70;;;;;;5109445;27;43011;-78
2022/04/07 03:21:02;;;;;;;;;;;19.60;48.80;;;;;;5109288;27;43268;-79
2022/04/07 03:23:28;;;;;;;;;;;19.60;48.80;;;;;;5108206;27;44072;-78
2022/04/07 03:25:54;;;;;;;;;;;19.60;48.80;;;;;;5108312;27;42845;-78
2022/04/07 03:28:19;;;;;;;;;;;19.60;48.90;;;;;;5107414;27;43228;-79
2022/04/07 03:30:45;;;;;;;;;;;19.60;48.80;;;;;;5107924;27;42833;-79
2022/04/07 03:33:10;;;;;;;;;;;19.60;48.90;;;;;;5108294;27;43326;-77
2022/04/07 03:35:39;;;;;;;;;;;19.60;48.90;;;;;;5107581;27;42862;-78
2022/04/07 03:38:05;;;;;;;;;;;19.60;48.90;;;;;;5107210;27;43111;-79
2022/04/07 03:40:32;;;;;;;;;;;19.60;49.00;;;;;;5106882;27;43061;-78
2022/04/07 03:42:58;;;;;;;;;;;19.60;49.00;;;;;;5106516;27;44694;-78
2022/04/07 03:45:24;;;;;;;;;;;19.60;49.00;;;;;;5108093;27;42966;-78
2022/04/07 03:47:49;;;;;;;;;;;19.60;49.10;;;;;;5107365;27;43059;-79
2022/04/07 03:50:15;;;;;;;;;;;19.60;49.00;;;;;;5107630;27;42973;-77
2022/04/07 03:52:40;;;;;;;;;;;19.60;49.10;;;;;;5107995;27;42840;-78
2022/04/07 03:55:06;;;;;;;;;;;19.60;49.60;;;;;;5108091;27;42998;-78
2022/04/07 03:57:31;;;;;;;;;;;19.60;49.10;;;;;;5107777;27;42952;-78
2022/04/07 03:59:57;;;;;;;;;;;19.60;49.10;;;;;;5107457;27;42755;-78
2022/04/07 04:02:22;;;;;;;;;;;19.60;49.10;;;;;;5105979;27;44007;-78
2022/04/07 04:04:48;;;;;;;;;;;19.60;49.10;;;;;;5107443;27;42946;-78
2022/04/07 04:07:13;;;;;;;;;;;19.60;49.20;;;;;;5106242;27;42899;-78
2022/04/07 04:09:39;;;;;;;;;;;19.60;49.20;;;;;;5107988;27;42894;-77
2022/04/07 04:12:05;;;;;;;;;;;19.60;49.20;;;;;;5106933;27;42956;-77
2022/04/07 04:14:30;;;;;;;;;;;19.60;49.20;;;;;;5107750;27;42988;-78
2022/04/07 04:16:56;;;;;;;;;;;19.60;49.20;;;;;;5118947;27;43668;-78
2022/04/07 04:19:22;;;;;;;;;;;19.60;49.30;;;;;;5137334;27;42826;-77
2022/04/07 04:21:47;;;;;;;;;;;19.60;49.30;;;;;;5138527;27;43426;-78
2022/04/07 04:24:13;;;;;;;;;;;19.60;49.30;;;;;;5127734;27;42872;-78
2022/04/07 04:26:38;;;;;;;;;;;19.60;49.30;;;;;;5128057;27;43480;-77
2022/04/07 04:29:04;;;;;;;;;;;19.60;49.30;;;;;;5127632;27;42897;-80
2022/04/07 04:31:30;;;;;;;;;;;19.60;49.30;;;;;;5122948;27;43505;-78
2022/04/07 04:33:55;;;;;;;;;;;19.60;49.40;;;;;;5117702;27;42823;-79
2022/04/07 04:36:21;;;;;;;;;;;19.60;49.40;;;;;;5107948;27;43250;-77
2022/04/07 04:38:47;;;;;;;;;;;19.60;49.40;;;;;;5107618;27;42818;-77
2022/04/07 04:41:12;;;;;;;;;;;19.60;49.40;;;;;;5127294;27;42967;-79
2022/04/07 04:43:38;;;;;;;;;;;19.60;49.50;;;;;;5120199;27;42928;-79
2022/04/07 04:46:03;;;;;;;;;;;19.60;49.50;;;;;;5106350;27;42921;-79
2022/04/07 04:48:29;;;;;;;;;;;19.60;49.50;;;;;;5114461;27;42986;-78
2022/04/07 04:50:58;;;;;;;;;;;19.60;49.50;;;;;;5127629;27;42877;-80
2022/04/07 04:53:23;;;;;;;;;;;19.60;49.50;;;;;;5120655;27;43000;-79
2022/04/07 04:55:49;;;;;;;;;;;19.70;49.60;;;;;;5107055;27;43577;-79
2022/04/07 04:58:15;;;;;;;;;;;19.60;49.50;;;;;;5121832;27;43113;-78
2022/04/07 05:00:41;;;;;;;;;;;19.60;49.60;;;;;;5133816;27;43466;-78
2022/04/07 05:03:06;;;;;;;;;;;19.60;49.60;;;;;;5140034;27;42884;-77
2022/04/07 05:05:32;;;;;;;;;;;19.60;49.60;;;;;;5137530;27;43019;-77
2022/04/07 05:07:58;;;;;;;;;;;19.60;49.60;;;;;;5136164;27;43101;-77
2022/04/07 05:10:24;;;;;;;;;;;19.60;49.60;;;;;;5137422;27;43411;-77
2022/04/07 05:12:50;;;;;;;;;;;19.60;49.60;;;;;;5139055;27;43912;-78
2022/04/07 05:15:16;;;;;;;;;;;19.60;49.70;;;;;;5138751;27;43394;-77
2022/04/07 05:17:41;;;;;;;;;;;19.60;49.70;;;;;;5126177;27;42852;-77
2022/04/07 05:20:10;;;;;;;;;;;19.60;49.70;;;;;;5126981;27;43402;-78
2022/04/07 05:22:36;;;;;;;;;;;19.60;49.70;;;;;;5125833;27;43105;-77
2022/04/07 05:25:01;;;;;;;;;;;19.60;49.70;;;;;;5134394;27;43451;-76
2022/04/07 05:27:28;;;;;;;;;;;19.60;49.70;;;;;;5132866;27;42926;-79
2022/04/07 05:29:53;;;;;;;;;;;19.60;49.70;;;;;;5118259;27;43617;-77
2022/04/07 05:32:19;;;;;;;;;;;19.60;49.80;;;;;;5125274;27;43029;-79
2022/04/07 05:34:44;;;;;;;;;;;19.60;49.80;;;;;;5134759;27;43576;-81
2022/04/07 05:37:10;;;;;;;;;;;19.70;49.80;;;;;;5141600;27;43006;-81
2022/04/07 05:39:35;;;;;;;;;;;19.60;49.80;;;;;;5129407;27;42903;-78
2022/04/07 05:42:01;;;;;;;;;;;19.60;49.80;;;;;;5107601;27;42885;-78
2022/04/07 05:44:26;;;;;;;;;;;19.60;49.80;;;;;;5117844;27;43871;-78
2022/04/07 05:46:52;;;;;;;;;;;19.60;49.80;;;;;;5137654;27;43799;-79
2022/04/07 05:49:18;;;;;;;;;;;19.60;49.90;;;;;;5133469;27;45390;-77
2022/04/07 05:51:44;;;;;;;;;;;19.60;49.80;;;;;;5144073;27;42901;-77
2022/04/07 05:54:09;;;;;;;;;;;19.60;50.00;;;;;;5144175;27;43384;-79
2022/04/07 05:56:35;;;;;;;;;;;19.70;49.90;;;;;;5133790;27;43057;-78
2022/04/07 05:59:00;;;;;;;;;;;19.60;49.90;;;;;;5141888;27;42853;-79
2022/04/07 06:01:26;;;;;;;;;;;19.60;49.90;;;;;;5131047;27;42887;-77
2022/04/07 06:03:51;;;;;;;;;;;19.60;49.90;;;;;;5126038;27;43062;-77
2022/04/07 06:06:17;;;;;;;;;;;19.60;49.90;;;;;;5126408;27;42843;-78
2022/04/07 06:08:42;;;;;;;;;;;19.60;49.90;;;;;;5128336;27;42995;-80
2022/04/07 06:11:08;;;;;;;;;;;19.60;49.90;;;;;;5129546;27;42754;-81
2022/04/07 06:13:34;;;;;;;;;;;19.60;49.90;;;;;;5133783;27;43586;-79
2022/04/07 06:16:00;;;;;;;;;;;19.60;49.90;;;;;;5139046;27;43011;-81
2022/04/07 06:18:27;;;;;;;;;;;19.60;50.00;;;;;;5140359;27;43015;-78
2022/04/07 06:20:53;;;;;;;;;;;19.60;50.00;;;;;;5135855;27;43149;-81
2022/04/07 06:23:18;;;;;;;;;;;19.60;50.00;;;;;;5139307;27;42980;-80
2022/04/07 06:25:44;;;;;;;;;;;19.60;50.00;;;;;;5139698;27;42979;-81
2022/04/07 06:28:09;;;;;;;;;;;19.60;50.00;;;;;;5138155;27;43678;-78
2022/04/07 06:30:35;;;;;;;;;;;19.60;50.00;;;;;;5140294;27;42947;-79
2022/04/07 06:33:00;;;;;;;;;;;19.60;50.00;;;;;;5139374;27;42903;-81
2022/04/07 06:35:26;;;;;;;;;;;19.60;50.00;;;;;;5135990;27;42846;-80
2022/04/07 06:37:54;;;;;;;;;;;19.60;50.10;;;;;;5130598;27;42877;-79
2022/04/07 06:40:20;;;;;;;;;;;19.60;50.10;;;;;;5132395;27;42819;-78
2022/04/07 06:42:49;;;;;;;;;;;19.60;50.10;;;;;;5125606;27;42957;-80
2022/04/07 06:45:15;;;;;;;;;;;19.60;50.10;;;;;;5118640;27;42920;-78
2022/04/07 06:47:43;;;;;;;;;;;19.60;50.10;;;;;;5115791;27;43911;-79
2022/04/07 06:50:10;;;;;;;;;;;19.60;50.10;;;;;;5119670;27;43014;-78
2022/04/07 06:52:36;;;;;;;;;;;19.60;50.10;;;;;;5128902;27;43586;-78
2022/04/07 06:55:02;;;;;;;;;;;19.60;50.20;;;;;;5137088;27;43976;-78
2022/04/07 06:57:27;;;;;;;;;;;19.60;50.20;;;;;;5139419;27;43574;-79
2022/04/07 06:59:53;;;;;;;;;;;19.60;50.20;;;;;;5136651;27;43108;-79
2022/04/07 07:02:18;;;;;;;;;;;19.60;50.20;;;;;;5138644;27;42977;-79
2022/04/07 07:04:44;;;;;;;;;;;19.60;50.20;;;;;;5139457;27;43103;-80
2022/04/07 07:07:11;;;;;;;;;;;19.60;50.20;;;;;;5137039;27;43038;-79
2022/04/07 07:09:37;;;;;;;;;;;19.60;50.20;;;;;;5128361;27;42975;-83
2022/04/07 07:12:03;;;;;;;;;;;19.60;50.30;;;;;;5137192;27;42974;-82
2022/04/07 07:14:28;;;;;;;;;;;19.60;50.30;;;;;;5127382;27;42890;-78
2022/04/07 07:16:54;;;;;;;;;;;19.60;50.30;;;;;;5128021;27;42975;-79
2022/04/07 07:19:24;;;;;;;;;;;19.60;50.30;;;;;;5129919;27;42972;-79
2022/04/07 07:21:50;;;;;;;;;;;19.60;50.30;;;;;;5136021;27;43561;-77
2022/04/07 07:24:15;;;;;;;;;;;19.70;50.40;;;;;;5137412;27;42974;-79
2022/04/07 07:26:41;;;;;;;;;;;19.60;50.30;;;;;;5137226;27;42931;-79
2022/04/07 07:29:06;;;;;;;;;;;19.60;50.40;;;;;;5138670;27;43666;-82
2022/04/07 07:31:33;;;;;;;;;;;19.60;50.40;;;;;;5138269;27;42931;-77
2022/04/07 07:33:59;;;;;;;;;;;19.60;50.40;;;;;;5136965;27;42899;-77
2022/04/07 07:36:24;;;;;;;;;;;19.60;50.40;;;;;;5133352;27;43449;-77
2022/04/07 07:38:50;;;;;;;;;;;19.60;50.40;;;;;;5146768;27;43177;-78
2022/04/07 07:41:15;;;;;;;;;;;19.60;50.40;;;;;;5140762;27;43106;-77
2022/04/07 07:43:41;;;;;;;;;;;19.60;50.50;;;;;;5119597;27;42982;-80
2022/04/07 07:46:06;;;;;;;;;;;19.60;50.50;;;;;;5123749;27;43757;-78
2022/04/07 07:48:32;;;;;;;;;;;19.60;50.50;;;;;;5145309;27;43053;-77
2022/04/07 07:50:58;;;;;;;;;;;19.60;50.60;;;;;;5114748;27;42980;-78
2022/04/07 07:53:24;;;;;;;;;;;19.60;50.60;;;;;;5117202;27;42956;-77
2022/04/07 07:55:50;;;;;;;;;;;19.60;50.60;;;;;;5115988;27;43511;-79
2022/04/07 07:58:15;;;;;;;;;;;19.60;50.60;;;;;;5115645;27;43033;-76
2022/04/07 08:00:43;;;;;;;;;;;19.60;50.60;;;;;;5115751;27;63444;-79
2022/04/07 08:03:08;;;;;;;;;;;19.70;50.70;;;;;;5120583;27;43121;-77
2022/04/07 08:05:35;;;;;;;;;;;19.60;50.60;;;;;;5124851;27;42929;-76
2022/04/07 08:08:01;;;;;;;;;;;19.60;50.70;;;;;;5126549;27;43243;-75
2022/04/07 08:10:27;;;;;;;;;;;19.60;50.70;;;;;;5137630;27;44059;-76
2022/04/07 08:12:52;;;;;;;;;;;19.60;50.60;;;;;;5114064;27;42919;-78
2022/04/07 08:15:18;;;;;;;;;;;19.60;50.70;;;;;;5114405;27;43555;-78
2022/04/07 08:17:43;;;;;;;;;;;19.60;50.60;;;;;;5132626;27;43268;-78
2022/04/07 08:20:09;;;;;;;;;;;19.70;50.70;;;;;;5137993;27;43127;-78
2022/04/07 08:22:35;;;;;;;;;;;19.60;50.60;;;;;;5130411;27;43026;-76
2022/04/07 08:25:00;;;;;;;;;;;19.60;50.60;;;;;;5122418;27;43576;-78
2022/04/07 08:27:26;;;;;;;;;;;19.60;50.60;;;;;;5125156;27;42982;-78
2022/04/07 08:29:52;;;;;;;;;;;19.60;50.60;;;;;;5127860;27;43284;-79
2022/04/07 08:32:18;;;;;;;;;;;19.60;50.60;;;;;;5122277;27;43848;-79
2022/04/07 08:34:43;;;;;;;;;;;19.60;50.60;;;;;;5136205;27;43956;-80
2022/04/07 08:37:09;;;;;;;;;;;19.60;50.60;;;;;;5139023;27;43041;-78
2022/04/07 08:39:34;;;;;;;;;;;19.60;50.60;;;;;;5138296;27;44051;-79
2022/04/07 08:42:01;;;;;;;;;;;19.60;50.60;;;;;;5131442;27;42999;-79
2022/04/07 08:44:31;;;;;;;;;;;19.60;50.60;;;;;;5127370;27;43089;-80
2022/04/07 08:46:57;;;;;;;;;;;19.60;50.60;;;;;;5136954;27;42973;-79
2022/04/07 08:49:24;;;;;;;;;;;19.60;50.60;;;;;;5134284;27;44304;-79
2022/04/07 08:51:50;;;;;;;;;;;19.60;50.50;;;;;;5124418;27;42985;-79
2022/04/07 08:54:16;;;;;;;;;;;19.60;50.50;;;;;;5125962;27;43128;-78
2022/04/07 08:56:41;;;;;;;;;;;19.60;51.10;;;;;;5129016;27;42955;-78
2022/04/07 08:59:07;;;;;;;;;;;19.60;50.50;;;;;;5135369;27;42985;-76
2022/04/07 09:01:32;;;;;;;;;;;19.60;50.40;;;;;;5136110;27;42877;-75
2022/04/07 09:03:58;;;;;;;;;;;19.60;50.20;;;;;;5133674;27;42976;-76
2022/04/07 09:06:25;;;;;;;;;;;19.50;49.00;;;;;;5141170;27;43141;-76
2022/04/07 09:08:51;;;;;;;;;;;19.50;48.10;;;;;;5145296;27;44608;-76
2022/04/07 09:11:17;;;;;;;;;;;19.50;49.50;;;;;;5147311;27;43003;-75
2022/04/07 09:13:44;;;;;;;;;;;19.50;49.50;;;;;;5146669;27;43924;-76
2022/04/07 09:16:12;;;;;;;;;;;19.50;48.60;;;;;;5127877;27;42824;-75
2022/04/07 09:18:42;;;;;;;;;;;19.50;49.20;;;;;;5128961;27;42877;-76
2022/04/07 09:21:15;;;;;;;;;;;19.50;48.80;;;;;;5131747;27;43175;-76
2022/04/07 09:23:41;;;;;;;;;;;19.40;49.20;;;;;;5136730;27;42863;-75
2022/04/07 09:26:13;;;;;;;;;;;19.40;49.30;;;;;;5136962;27;42978;-75
2022/04/07 09:28:39;;;;;;;;;;;19.40;49.10;;;;;;5128572;27;43905;-75
2022/04/07 09:31:05;;;;;;;;;;;19.40;49.10;;;;;;5128410;27;43062;-77
2022/04/07 09:33:30;;;;;;;;;;;19.40;49.20;;;;;;5128371;27;43517;-76
2022/04/07 09:36:02;;;;;;;;;;;19.40;49.10;;;;;;5137189;27;42863;-79
2022/04/07 09:38:30;;;;;;;;;;;19.40;49.20;;;;;;5150505;27;42911;-75
2022/04/07 09:41:04;;;;;;;;;;;19.40;48.80;;;;;;5148471;27;42950;-76
2022/04/07 09:43:40;;;;;;;;;;;19.80;49.30;;;;;;5150609;27;42960;-76
2022/04/07 09:46:10;;;;;;;;;;;19.40;49.00;;;;;;5109150;27;43055;-76
2022/04/07 09:48:36;;;;;;;;;;;19.30;48.90;;;;;;5108868;27;42860;-75
2022/04/07 09:51:03;;;;;;;;;;;19.40;49.00;;;;;;5108799;27;42903;-76
2022/04/07 09:53:38;;;;;;;;;;;19.30;48.70;;;;;;5119632;27;43003;-74
2022/04/07 09:56:05;;;;;;;;;;;19.30;48.70;;;;;;5140380;27;43182;-76
2022/04/07 09:58:30;;;;;;;;;;;19.30;48.70;;;;;;5118834;27;43746;-77
2022/04/07 10:00:56;;;;;;;;;;;19.30;48.90;;;;;;5117747;27;42896;-74
2022/04/07 10:03:22;;;;;;;;;;;19.30;48.90;;;;;;5129057;27;43820;-75
2022/04/07 10:05:48;;;;;;;;;;;19.30;48.80;;;;;;5117257;27;43282;-75
2022/04/07 10:08:15;;;;;;;;;;;19.30;48.70;;;;;;5117176;27;42947;-77
2022/04/07 10:10:41;;;;;;;;;;;19.30;48.80;;;;;;5119173;27;43366;-76
2022/04/07 10:13:08;;;;;;;;;;;19.30;48.90;;;;;;5118890;27;43497;-75
2022/04/07 10:15:35;;;;;;;;;;;19.30;48.70;;;;;;5119064;27;42982;-80
2022/04/07 10:18:04;;;;;;;;;;;19.30;48.80;;;;;;5116464;27;43252;-77
2022/04/07 10:20:33;;;;;;;;;;;19.30;48.50;;;;;;5126637;27;43171;-76
2022/04/07 10:22:59;;;;;;;;;;;19.30;48.40;;;;;;5128539;27;44449;-82
2022/04/07 10:25:25;;;;;;;;;;;19.30;47.70;;;;;;5123288;27;42860;-78
2022/04/07 10:27:53;;;;;;;;;;;19.30;48.30;;;;;;5115855;27;43961;-77
2022/04/07 10:30:19;;;;;;;;;;;19.30;48.40;;;;;;5119026;27;43065;-76
2022/04/07 10:32:53;;;;;;;;;;;19.30;47.40;;;;;;5118519;27;43282;-75
2022/04/07 10:35:31;;;;;;;;;;;19.20;46.90;;;;;;5119028;27;42941;-76
2022/04/07 10:37:58;;;;;;;;;;;19.30;47.60;;;;;;5113779;27;43077;-79
2022/04/07 10:40:44;;;;;;;;;;;19.20;47.00;;;;;;5108911;27;42901;-75
2022/04/07 10:43:25;;;;;;;;;;;19.20;47.40;;;;;;5109448;27;43448;-77
2022/04/07 10:46:06;;;;;;;;;;;19.20;47.80;;;;;;5112349;27;42923;-79
2022/04/07 10:48:32;;;;;;;;;;;19.20;47.70;;;;;;5129679;27;42808;-76
2022/04/07 10:51:08;;;;;;;;;;;19.20;47.60;;;;;;5129582;27;42746;-76
2022/04/07 10:53:40;;;;;;;;;;;19.20;47.50;;;;;;5112148;27;42831;-76
2022/04/07 10:56:07;;;;;;;;;;;19.20;47.30;;;;;;5108064;27;42992;-76
2022/04/07 10:58:38;;;;;;;;;;;19.20;46.30;;;;;;5108137;27;42983;-76
2022/04/07 11:01:04;;;;;;;;;;;19.10;47.60;;;;;;5108449;27;42959;-80
2022/04/07 11:03:29;;;;;;;;;;;19.20;47.10;;;;;;5108451;27;42935;-76
2022/04/07 11:05:59;;;;;;;;;;;19.20;47.30;;;;;;5106935;27;42973;-77
2022/04/07 11:08:25;;;;;;;;;;;19.20;46.70;;;;;;5108193;27;42853;-83
2022/04/07 11:10:52;;;;;;;;;;;19.20;47.60;;;;;;5108588;27;43026;-78
2022/04/07 11:13:38;;;;;;;;;;;19.20;47.60;;;;;;5112208;27;44191;-81
2022/04/07 11:16:10;;;;;;;;;;;19.20;47.20;;;;;;5111650;27;42936;-83
2022/04/07 11:18:53;;;;;;;;;;;19.20;46.90;;;;;;5107756;27;44767;-78
2022/04/07 11:21:18;;;;;;;;;;;19.20;47.00;;;;;;5120522;27;42852;-78
2022/04/07 11:23:51;;;;;;;;;;;19.20;47.10;;;;;;5118884;27;43060;-77
2022/04/07 11:26:35;;;;;;;;;;;19.20;46.80;;;;;;5122542;27;42883;-76
2022/04/07 11:29:10;;;;;;;;;;;19.20;46.90;;;;;;5117339;27;43490;-77
2022/04/07 11:31:44;;;;;;;;;;;19.10;46.40;;;;;;5117840;27;43075;-76
2022/04/07 11:34:29;;;;;;;;;;;19.10;47.00;;;;;;5109820;27;43006;-77
2022/04/07 11:36:54;;;;;;;;;;;19.20;47.30;;;;;;5106987;27;42941;-77
2022/04/07 11:39:20;;;;;;;;;;;19.00;47.20;;;;;;5114324;27;43266;-82
2022/04/07 11:41:46;;;;;;;;;;;19.20;46.90;;;;;;5110710;27;42986;-76
2022/04/07 11:44:12;;;;;;;;;;;19.20;47.20;;;;;;5117147;27;42846;-77
2022/04/07 11:46:37;;;;;;;;;;;19.20;47.10;;;;;;5116760;27;43087;-82
2022/04/07 11:49:04;;;;;;;;;;;19.20;46.90;;;;;;5115510;27;43217;-75
2022/04/07 11:51:32;;;;;;;;;;;19.10;46.70;;;;;;5117722;27;42976;-75
2022/04/07 11:53:57;;;;;;;;;;;19.10;46.60;;;;;;5114237;27;43518;-75
2022/04/07 11:56:27;;;;;;;;;;;19.10;47.00;;;;;;5108607;27;42973;-76
2022/04/07 11:58:57;;;;;;;;;;;19.10;47.20;;;;;;5116768;27;43015;-79
2022/04/07 12:01:23;;;;;;;;;;;19.10;47.10;;;;;;5113397;27;42980;-76
2022/04/07 12:03:52;;;;;;;;;;;19.10;46.70;;;;;;5116105;27;43467;-76
2022/04/07 12:06:22;;;;;;;;;;;19.20;47.00;;;;;;5115086;27;43018;-77
2022/04/07 12:08:49;;;;;;;;;;;19.10;46.90;;;;;;5114446;27;43535;-76
2022/04/07 12:11:14;;;;;;;;;;;19.10;47.00;;;;;;5116051;27;43049;-77
2022/04/07 12:13:40;;;;;;;;;;;19.10;46.80;;;;;;5116379;27;43123;-76
2022/04/07 12:16:08;;;;;;;;;;;19.10;46.70;;;;;;5113843;27;42937;-76
2022/04/07 12:18:34;;;;;;;;;;;19.10;46.80;;;;;;5111535;27;43637;-75
2022/04/07 12:21:01;;;;;;;;;;;19.10;46.80;;;;;;5118536;27;42927;-75
2022/04/07 12:23:27;;;;;;;;;;;19.10;46.70;;;;;;5124616;27;43595;-76
2022/04/07 12:25:59;;;;;;;;;;;19.10;46.70;;;;;;5126790;27;42949;-76
2022/04/07 12:28:38;;;;;;;;;;;19.10;46.80;;;;;;5126196;27;43386;-77
2022/04/07 12:31:20;;;;;;;;;;;19.10;46.90;;;;;;5126217;27;43028;-81
2022/04/07 12:33:49;;;;;;;;;;;19.10;47.00;;;;;;5122583;27;45392;-78
2022/04/07 12:36:30;;;;;;;;;;;19.10;46.90;;;;;;5116921;27;42961;-77
2022/04/07 12:39:03;;;;;;;;;;;19.10;46.80;;;;;;5113440;27;44529;-77
2022/04/07 12:41:55;;;;;;;;;;;19.10;46.90;;;;;;5125168;27;42994;-75
2022/04/07 12:44:26;;;;;;;;;;;19.10;46.90;;;;;;5117678;27;43019;-78
2022/04/07 12:46:53;;;;;;;;;;;19.10;46.60;;;;;;5116267;27;43014;-77
2022/04/07 12:49:32;;;;;;;;;;;19.10;47.00;;;;;;5115128;27;42885;-75
2022/04/07 12:52:11;;;;;;;;;;;19.10;46.70;;;;;;5115177;27;43024;-78
2022/04/07 12:54:37;;;;;;;;;;;19.10;46.70;;;;;;5114253;27;43398;-75
2022/04/07 12:57:07;;;;;;;;;;;19.10;46.90;;;;;;5112945;27;43259;-79
2022/04/07 12:59:32;;;;;;;;;;;19.10;46.90;;;;;;5122972;27;43317;-82
2022/04/07 13:01:58;;;;;;;;;;;19.10;47.10;;;;;;5124303;27;43216;-74
2022/04/07 13:04:43;;;;;;;;;;;19.10;46.60;;;;;;5109069;27;42965;-76
2022/04/07 13:07:08;;;;;;;;;;;19.10;46.70;;;;;;5120945;27;42988;-76
2022/04/07 13:09:34;;;;;;;;;;;19.10;46.80;;;;;;5137364;27;42929;-77
2022/04/07 13:12:01;;;;;;;;;;;19.00;46.90;;;;;;5134662;27;42995;-81
2022/04/07 13:14:26;;;;;;;;;;;19.10;47.00;;;;;;5120329;27;44552;-77
2022/04/07 13:16:52;;;;;;;;;;;19.10;47.00;;;;;;5119445;27;43348;-84
2022/04/07 13:19:17;;;;;;;;;;;19.00;47.00;;;;;;5116671;27;43106;-85
2022/04/07 13:21:43;;;;;;;;;;;19.10;47.20;;;;;;5112365;27;43025;-85
2022/04/07 13:24:08;;;;;;;;;;;19.10;47.30;;;;;;5116537;27;44414;-85
2022/04/07 13:26:34;;;;;;;;;;;19.10;47.40;;;;;;5116042;27;42901;-84
2022/04/07 13:28:59;;;;;;;;;;;19.10;47.30;;;;;;5118405;27;43209;-84
2022/04/07 13:31:25;;;;;;;;;;;19.10;47.20;;;;;;5120561;27;43044;-84
2022/04/07 13:33:53;;;;;;;;;;;19.10;47.30;;;;;;5113174;27;42923;-83
2022/04/07 13:36:19;;;;;;;;;;;18.70;47.00;;;;;;5131542;27;42944;-83
2022/04/07 13:38:45;;;;;;;;;;;19.10;47.40;;;;;;5138047;27;43305;-81
2022/04/07 13:41:11;;;;;;;;;;;19.10;47.50;;;;;;5134689;27;43058;-77
2022/04/07 13:43:36;;;;;;;;;;;19.10;47.10;;;;;;5124525;27;43971;-77
2022/04/07 13:46:02;;;;;;;;;;;19.10;47.20;;;;;;5137430;27;43185;-78
2022/04/07 13:48:28;;;;;;;;;;;19.10;47.20;;;;;;5124618;27;43188;-79
2022/04/07 13:50:54;;;;;;;;;;;19.10;47.20;;;;;;5118123;27;42909;-78
2022/04/07 13:53:20;;;;;;;;;;;19.10;47.30;;;;;;5116586;27;43899;-77
2022/04/07 13:55:46;;;;;;;;;;;19.10;47.10;;;;;;5118728;27;43472;-79
2022/04/07 13:58:12;;;;;;;;;;;19.10;47.20;;;;;;5133822;27;43479;-78
2022/04/07 14:00:38;;;;;;;;;;;19.10;47.00;;;;;;5137448;27;43137;-80
2022/04/07 14:03:04;;;;;;;;;;;19.10;47.00;;;;;;5133538;27;42775;-80
2022/04/07 14:05:29;;;;;;;;;;;19.10;47.10;;;;;;5125324;27;42934;-79
2022/04/07 14:07:55;;;;;;;;;;;19.10;47.00;;;;;;5140223;27;42877;-81
2022/04/07 14:10:22;;;;;;;;;;;19.10;47.00;;;;;;5137501;27;42991;-81
2022/04/07 14:12:48;;;;;;;;;;;19.10;47.00;;;;;;5127315;27;43564;-81
2022/04/07 14:15:13;;;;;;;;;;;19.10;47.00;;;;;;5135886;27;43159;-80
2022/04/07 14:17:40;;;;;;;;;;;19.10;47.00;;;;;;5134963;27;43397;-79
2022/04/07 14:20:07;;;;;;;;;;;19.10;47.00;;;;;;5139076;27;43023;-79